createdAt,value
2023-03-04T00:02:24.717Z,101156.33
2023-03-04T00:04:53.039Z,101157.66
2023-03-04T00:07:21.176Z,101161.18
2023-03-04T00:09:53.411Z,101154.45
2023-03-04T00:12:21.828Z,101147.31
2023-03-04T00:14:49.939Z,101143.73
2023-03-04T00:17:26.514Z,101143.70
2023-03-04T00:19:55.315Z,101142.48
2023-03-04T00:22:24.190Z,101138.80
2023-03-04T00:24:53.977Z,101136.95
2023-03-04T00:27:23.527Z,101139.52
2023-03-04T00:29:51.716Z,101136.79
2023-03-04T00:32:19.876Z,101135.46
2023-03-04T00:34:48.359Z,101133.33
2023-03-04T00:37:16.447Z,101134.83
2023-03-04T00:39:45.734Z,101133.48
2023-03-04T00:42:16.652Z,101135.40
2023-03-04T00:44:45.135Z,101133.66
2023-03-04T00:47:13.213Z,101135.95
2023-03-04T00:49:42.119Z,101131.10
2023-03-04T00:52:10.713Z,101128.48
2023-03-04T00:54:42.950Z,101127.45
2023-03-04T00:57:11.399Z,101132.95
2023-03-04T00:59:40.907Z,101129.38
2023-03-04T01:02:11.336Z,101122.17
2023-03-04T01:04:42.067Z,101121.33
2023-03-04T01:07:10.702Z,101118.79
2023-03-04T01:09:45.585Z,101116.39
2023-03-04T01:12:14.279Z,101115.91
2023-03-04T01:14:42.700Z,101119.27
2023-03-04T01:17:17.636Z,101120.26
2023-03-04T01:19:45.840Z,101117.09
2023-03-04T01:22:15.703Z,101115.77
2023-03-04T01:24:45.473Z,101120.86
2023-03-04T01:27:13.698Z,101118.15
2023-03-04T01:29:45.529Z,101121.48
2023-03-04T01:32:13.898Z,101119.81
2023-03-04T01:34:43.868Z,101118.13
2023-03-04T01:37:14.025Z,101118.05
2023-03-04T01:39:42.858Z,101117.77
2023-03-04T01:42:19.746Z,101119.66
2023-03-04T01:44:48.099Z,101122.02
2023-03-04T01:47:19.512Z,101123.17
2023-03-04T01:49:53.733Z,101126.48
2023-03-04T01:52:22.057Z,101125.52
2023-03-04T01:54:51.704Z,101127.04
2023-03-04T01:57:24.531Z,101124.60
2023-03-04T02:00:24.099Z,101122.36
2023-03-04T02:02:54.518Z,101121.75
2023-03-04T02:05:22.803Z,101119.73
2023-03-04T02:07:53.107Z,101118.74
2023-03-04T02:10:24.152Z,101116.61
2023-03-04T02:12:54.266Z,101118.32
2023-03-04T02:15:23.371Z,101125.07
2023-03-04T02:17:57.956Z,101126.95
2023-03-04T02:20:43.748Z,101128.91
2023-03-04T02:23:23.328Z,101128.64
2023-03-04T02:26:16.137Z,101128.98
2023-03-04T02:28:45.130Z,101124.84
2023-03-04T02:31:40.428Z,101131.95
2023-03-04T02:34:11.583Z,101130.46
2023-03-04T02:36:40.592Z,101128.93
2023-03-04T02:39:21.189Z,101124.58
2023-03-04T02:41:52.989Z,101119.12
2023-03-04T02:44:24.293Z,101122.98
2023-03-04T02:46:53.364Z,101119.73
2023-03-04T02:49:21.906Z,101119.75
2023-03-04T02:52:03.951Z,101115.56
2023-03-04T02:54:33.193Z,101113.88
2023-03-04T02:57:04.030Z,101111.05
2023-03-04T02:59:33.025Z,101110.98
2023-03-04T03:02:02.951Z,101110.59
2023-03-04T03:04:31.423Z,101116.64
2023-03-04T03:06:59.935Z,101120.37
2023-03-04T03:09:32.654Z,101122.02
2023-03-04T03:12:01.160Z,101122.17
2023-03-04T03:14:30.749Z,101118.44
2023-03-04T03:17:00.227Z,101120.58
2023-03-04T03:19:29.069Z,101116.55
2023-03-04T03:21:59.517Z,101115.52
2023-03-04T03:24:29.814Z,101123.13
2023-03-04T03:26:57.992Z,101122.25
2023-03-04T03:29:27.595Z,101127.52
2023-03-04T03:31:57.236Z,101128.21
2023-03-04T03:34:25.458Z,101128.99
2023-03-04T03:36:54.078Z,101133.21
2023-03-04T03:39:25.730Z,101135.17
2023-03-04T03:41:54.138Z,101136.34
2023-03-04T03:44:22.235Z,101137.94
2023-03-04T03:46:51.243Z,101131.64
2023-03-04T03:49:19.372Z,101127.60
2023-03-04T03:51:47.925Z,101124.55
2023-03-04T03:54:16.231Z,101126.56
2023-03-04T03:56:46.697Z,101130.29
2023-03-04T03:59:15.059Z,101128.30
2023-03-04T04:01:43.601Z,101138.08
2023-03-04T04:04:12.233Z,101136.92
2023-03-04T04:06:40.382Z,101138.80
2023-03-04T04:09:08.639Z,101140.42
2023-03-04T04:11:37.594Z,101139.73
2023-03-04T04:14:05.760Z,101139.51
2023-03-04T04:16:34.142Z,101141.08
2023-03-04T04:19:02.254Z,101139.58
2023-03-04T04:21:33.983Z,101138.93
2023-03-04T04:24:03.368Z,101131.75
2023-03-04T04:26:31.542Z,101131.75
2023-03-04T04:29:00.017Z,101128.15
2023-03-04T04:31:28.191Z,101129.66
2023-03-04T04:33:56.569Z,101124.42
2023-03-04T04:36:25.209Z,101128.73
2023-03-04T04:38:57.808Z,101133.39
2023-03-04T04:41:28.470Z,101135.41
2023-03-04T04:43:56.782Z,101137.26
2023-03-04T04:46:26.054Z,101136.56
2023-03-04T04:48:54.496Z,101132.64
2023-03-04T04:51:23.070Z,101129.11
2023-03-04T04:53:51.592Z,101127.94
2023-03-04T04:56:21.517Z,101132.55
2023-03-04T04:58:49.839Z,101133.59
2023-03-04T05:01:18.317Z,101135.52
2023-03-04T05:03:50.854Z,101136.95
2023-03-04T05:06:19.612Z,101137.90
2023-03-04T05:08:55.774Z,101142.05
2023-03-04T05:11:24.365Z,101141.05
2023-03-04T05:13:52.516Z,101141.10
2023-03-04T05:16:22.092Z,101139.66
2023-03-04T05:18:50.288Z,101141.03
2023-03-04T05:21:18.509Z,101138.29
2023-03-04T05:23:46.985Z,101141.70
2023-03-04T05:26:17.650Z,101139.11
2023-03-04T05:28:46.786Z,101140.88
2023-03-04T05:31:15.434Z,101142.23
2023-03-04T05:33:44.848Z,101142.09
2023-03-04T05:36:13.212Z,101143.58
2023-03-04T05:38:42.485Z,101138.22
2023-03-04T05:41:10.920Z,101141.49
2023-03-04T05:43:43.047Z,101136.27
2023-03-04T05:46:15.826Z,101134.79
2023-03-04T05:48:44.082Z,101138.16
2023-03-04T05:51:12.302Z,101137.41
2023-03-04T05:53:41.380Z,101143.11
2023-03-04T05:56:10.732Z,101143.79
2023-03-04T05:58:39.564Z,101147.18
2023-03-04T06:01:10.937Z,101147.80
2023-03-04T06:03:39.811Z,101147.65
2023-03-04T06:06:07.968Z,101144.14
2023-03-04T06:08:37.473Z,101143.23
2023-03-04T06:11:05.790Z,101144.57
2023-03-04T06:13:34.909Z,101142.20
2023-03-04T06:16:03.509Z,101141.84
2023-03-04T06:18:31.835Z,101139.69
2023-03-04T06:21:01.119Z,101138.61
2023-03-04T06:23:29.752Z,101140.05
2023-03-04T06:25:59.422Z,101140.80
2023-03-04T06:28:28.160Z,101138.77
2023-03-04T06:30:56.556Z,101140.19
2023-03-04T06:33:25.821Z,101140.96
2023-03-04T06:35:55.797Z,101135.71
2023-03-04T06:38:24.822Z,101141.61
2023-03-04T06:40:56.062Z,101141.03
2023-03-04T06:43:25.874Z,101142.02
2023-03-04T06:45:54.453Z,101140.28
2023-03-04T06:48:23.080Z,101140.98
2023-03-04T06:50:51.111Z,101141.65
2023-03-04T06:53:19.207Z,101138.84
2023-03-04T06:55:49.864Z,101141.75
2023-03-04T06:58:18.891Z,101140.75
2023-03-04T07:00:47.093Z,101137.33
2023-03-04T07:03:16.255Z,101137.63
2023-03-04T07:05:46.552Z,101135.38
2023-03-04T07:08:21.188Z,101135.41
2023-03-04T07:10:52.175Z,101133.77
2023-03-04T07:13:20.535Z,101132.25
2023-03-04T07:15:54.097Z,101128.00
2023-03-04T07:18:22.841Z,101130.66
2023-03-04T07:20:53.129Z,101128.23
2023-03-04T07:23:21.250Z,101125.04
2023-03-04T07:25:50.315Z,101125.15
2023-03-04T07:28:19.052Z,101123.83
2023-03-04T07:30:47.590Z,101124.16
2023-03-04T07:33:20.070Z,101123.25
2023-03-04T07:35:48.601Z,101119.87
2023-03-04T07:38:16.889Z,101118.44
2023-03-04T07:40:45.416Z,101108.38
2023-03-04T07:43:14.282Z,101109.44
2023-03-04T07:45:43.479Z,101106.10
2023-03-04T07:48:12.561Z,101106.22
2023-03-04T07:50:40.694Z,101101.73
2023-03-04T07:53:09.593Z,101104.54
2023-03-04T07:55:37.992Z,101104.95
2023-03-04T07:58:06.104Z,101103.46
2023-03-04T08:00:35.481Z,101098.98
2023-03-04T08:03:04.411Z,101096.65
2023-03-04T08:05:33.075Z,101098.89
2023-03-04T08:08:01.274Z,101098.23
2023-03-04T08:10:31.909Z,101091.69
2023-03-04T08:13:00.262Z,101086.90
2023-03-04T08:15:28.393Z,101086.39
2023-03-04T08:17:56.765Z,101084.21
2023-03-04T08:20:25.239Z,101085.28
2023-03-04T08:22:53.625Z,101084.77
2023-03-04T08:25:23.213Z,101083.58
2023-03-04T08:27:52.575Z,101082.55
2023-03-04T08:30:22.451Z,101081.52
2023-03-04T08:32:50.827Z,101079.98
2023-03-04T08:35:19.094Z,101076.52
2023-03-04T08:37:48.068Z,101074.30
2023-03-04T08:40:16.245Z,101077.58
2023-03-04T08:42:44.332Z,101081.68
2023-03-04T08:45:12.505Z,101076.52
2023-03-04T08:47:41.051Z,101083.63
2023-03-04T08:50:14.736Z,101087.59
2023-03-04T08:52:43.960Z,101084.14
2023-03-04T08:55:18.517Z,101081.73
2023-03-04T08:57:46.977Z,101083.63
2023-03-04T09:00:15.699Z,101084.66
2023-03-04T09:03:04.174Z,101084.48
2023-03-04T09:05:35.204Z,101085.00
2023-03-04T09:08:03.406Z,101087.23
2023-03-04T09:10:31.853Z,101082.71
2023-03-04T09:13:01.233Z,101077.54
2023-03-04T09:15:30.610Z,101076.15
2023-03-04T09:17:58.692Z,101072.00
2023-03-04T09:20:31.616Z,101068.59
2023-03-04T09:23:00.813Z,101066.16
2023-03-04T09:25:29.435Z,101057.00
2023-03-04T09:27:58.484Z,101051.98
2023-03-04T09:30:28.825Z,101050.08
2023-03-04T09:33:01.338Z,101044.77
2023-03-04T09:35:32.866Z,101041.14
2023-03-04T09:38:01.203Z,101039.58
2023-03-04T09:40:41.520Z,101040.98
2023-03-04T09:43:19.903Z,101035.30
2023-03-04T09:45:50.905Z,101031.36
2023-03-04T09:48:22.218Z,101023.98
2023-03-04T09:50:59.649Z,101013.31
2023-03-04T09:53:56.737Z,101011.27
2023-03-04T09:56:26.052Z,101008.71
2023-03-04T09:59:05.216Z,101003.39
2023-03-04T10:01:46.530Z,100998.73
2023-03-04T10:04:20.762Z,100994.77
2023-03-04T10:06:54.773Z,100988.25
2023-03-04T10:09:32.858Z,100978.63
2023-03-04T10:12:04.268Z,100974.98
2023-03-04T10:14:45.085Z,100974.63
2023-03-04T10:17:24.756Z,100967.76
2023-03-04T10:19:59.478Z,100957.95
2023-03-04T10:22:51.947Z,100956.58
2023-03-04T10:25:25.840Z,100949.88
2023-03-04T10:28:05.351Z,100943.00
2023-03-04T10:30:46.484Z,100930.45
2023-03-04T10:33:19.589Z,100921.69
2023-03-04T10:36:12.698Z,100914.98
2023-03-04T10:38:42.105Z,100902.44
2023-03-04T10:41:20.190Z,100898.14
2023-03-04T10:44:18.816Z,100895.73
2023-03-04T10:46:49.056Z,100889.20
2023-03-04T10:49:19.541Z,100881.63
2023-03-04T10:51:50.230Z,100876.65
2023-03-04T10:54:18.552Z,100877.52
2023-03-04T10:56:55.439Z,100877.52
2023-03-04T10:59:43.657Z,100871.84
2023-03-04T11:02:20.408Z,100862.22
2023-03-04T11:04:54.772Z,100855.17
2023-03-04T11:07:24.778Z,100850.35
2023-03-04T11:09:53.578Z,100847.25
2023-03-04T11:12:33.359Z,100845.02
2023-03-04T11:15:01.716Z,100841.60
2023-03-04T11:17:45.757Z,100841.95
2023-03-04T11:20:33.324Z,100832.83
2023-03-04T11:23:05.730Z,100833.52
2023-03-04T11:25:39.210Z,100835.23
2023-03-04T11:28:26.683Z,100827.85
2023-03-04T11:31:03.846Z,100822.16
2023-03-04T11:33:43.282Z,100814.08
2023-03-04T11:36:16.432Z,100815.13
2023-03-04T11:38:47.612Z,100813.23
2023-03-04T11:41:39.504Z,100813.56
2023-03-04T11:44:09.044Z,100810.13
2023-03-04T11:46:58.851Z,100808.59
2023-03-04T11:49:50.180Z,100809.25
2023-03-04T11:52:24.026Z,100798.06
2023-03-04T11:55:04.385Z,100802.14
2023-03-04T11:57:35.661Z,100795.60
2023-03-04T12:00:44.220Z,100790.60
2023-03-04T12:03:21.424Z,100786.29
2023-03-04T12:05:52.645Z,100786.77
2023-03-04T12:08:25.564Z,100787.87
2023-03-04T12:11:06.126Z,100786.31
2023-03-04T12:14:18.672Z,100786.48
2023-03-04T12:17:10.718Z,100778.04
2023-03-04T12:19:55.613Z,100781.66
2023-03-04T12:22:33.989Z,100778.06
2023-03-04T12:25:04.086Z,100776.16
2023-03-04T12:27:54.332Z,100775.08
2023-03-04T12:30:29.869Z,100773.86
2023-03-04T12:33:21.447Z,100772.83
2023-03-04T12:35:55.866Z,100769.23
2023-03-04T12:38:49.344Z,100767.01
2023-03-04T12:41:23.648Z,100760.46
2023-03-04T12:44:03.991Z,100760.12
2023-03-04T12:47:11.869Z,100754.84
2023-03-04T12:50:06.311Z,100745.42
2023-03-04T12:52:34.577Z,100745.82
2023-03-04T12:55:05.418Z,100740.34
2023-03-04T12:57:34.761Z,100738.44
2023-03-04T13:00:35.480Z,100731.54
2023-03-04T13:03:18.870Z,100728.80
2023-03-04T13:05:50.010Z,100731.02
2023-03-04T13:08:26.243Z,100730.35
2023-03-04T13:11:02.144Z,100722.95
2023-03-04T13:13:36.427Z,100718.15
2023-03-04T13:16:07.044Z,100711.75
2023-03-04T13:18:36.785Z,100707.09
2023-03-04T13:21:24.084Z,100708.95
2023-03-04T13:23:53.279Z,100704.13
2023-03-04T13:26:24.300Z,100696.35
2023-03-04T13:28:55.265Z,100693.29
2023-03-04T13:31:27.240Z,100682.83
2023-03-04T13:33:57.148Z,100678.71
2023-03-04T13:36:30.939Z,100677.67
2023-03-04T13:39:05.495Z,100669.94
2023-03-04T13:41:50.491Z,100671.17
2023-03-04T13:44:44.033Z,100665.66
2023-03-04T13:47:23.041Z,100657.60
2023-03-04T13:49:51.853Z,100652.81
2023-03-04T13:52:40.673Z,100647.28
2023-03-04T13:55:38.316Z,100643.88
2023-03-04T13:58:27.117Z,100634.25
2023-03-04T14:00:55.778Z,100630.44
2023-03-04T14:03:28.624Z,100628.41
2023-03-04T14:06:17.016Z,100620.70
2023-03-04T14:08:46.178Z,100620.52
2023-03-04T14:11:19.863Z,100620.52
2023-03-04T14:13:50.639Z,100611.06
2023-03-04T14:16:22.844Z,100606.61
2023-03-04T14:19:03.470Z,100608.52
2023-03-04T14:21:31.705Z,100602.20
2023-03-04T14:24:02.658Z,100594.46
2023-03-04T14:26:31.950Z,100597.89
2023-03-04T14:29:03.126Z,100599.23
2023-03-04T14:31:32.041Z,100594.95
2023-03-04T14:34:02.517Z,100589.48
2023-03-04T14:36:34.076Z,100589.29
2023-03-04T14:39:04.219Z,100588.45
2023-03-04T14:41:38.066Z,100591.55
2023-03-04T14:44:36.064Z,100588.80
2023-03-04T14:47:08.551Z,100577.83
2023-03-04T14:49:37.225Z,100571.66
2023-03-04T14:52:34.481Z,100570.44
2023-03-04T14:55:22.701Z,100570.27
2023-03-04T14:57:58.682Z,100568.79
2023-03-04T15:00:33.387Z,100573.43
2023-03-04T15:03:16.566Z,100566.73
2023-03-04T15:05:45.423Z,100563.61
2023-03-04T15:08:37.681Z,100563.11
2023-03-04T15:11:07.070Z,100558.79
2023-03-04T15:13:46.942Z,100551.94
2023-03-04T15:16:16.122Z,100557.13
2023-03-04T15:19:29.287Z,100555.77
2023-03-04T15:22:05.480Z,100558.00
2023-03-04T15:24:34.616Z,100554.73
2023-03-04T15:27:08.165Z,100555.27
2023-03-04T15:29:37.510Z,100554.74
2023-03-04T15:32:12.147Z,100558.52
2023-03-04T15:34:41.077Z,100553.19
2023-03-04T15:37:11.605Z,100553.19
2023-03-04T15:39:39.737Z,100552.50
2023-03-04T15:42:09.518Z,100552.15
2023-03-04T15:44:38.772Z,100551.64
2023-03-04T15:47:13.027Z,100550.14
2023-03-04T15:49:49.335Z,100552.35
2023-03-04T15:52:19.590Z,100551.65
2023-03-04T15:54:48.422Z,100550.27
2023-03-04T15:57:26.843Z,100542.36
2023-03-04T15:59:54.981Z,100542.55
2023-03-04T16:02:25.150Z,100540.69
2023-03-04T16:04:54.320Z,100539.33
2023-03-04T16:07:29.056Z,100538.33
2023-03-04T16:09:59.528Z,100540.73
2023-03-04T16:12:28.435Z,100541.60
2023-03-04T16:14:58.226Z,100541.92
2023-03-04T16:17:27.482Z,100547.07
2023-03-04T16:19:55.667Z,100543.30
2023-03-04T16:22:25.747Z,100547.93
2023-03-04T16:24:55.534Z,100548.11
2023-03-04T16:27:26.735Z,100552.39
2023-03-04T16:29:55.184Z,100557.55
2023-03-04T16:32:25.028Z,100557.73
2023-03-04T16:34:53.251Z,100558.23
2023-03-04T16:37:21.782Z,100562.34
2023-03-04T16:39:50.069Z,100560.98
2023-03-04T16:42:22.208Z,100560.64
2023-03-04T16:44:50.403Z,100554.27
2023-03-04T16:47:18.541Z,100557.02
2023-03-04T16:49:50.455Z,100557.86
2023-03-04T16:52:39.090Z,100556.13
2023-03-04T16:55:10.907Z,100551.13
2023-03-04T16:57:39.061Z,100551.99
2023-03-04T17:00:10.590Z,100553.02
2023-03-04T17:02:38.936Z,100550.80
2023-03-04T17:05:09.858Z,100548.04
2023-03-04T17:07:38.776Z,100547.34
2023-03-04T17:10:07.211Z,100546.34
2023-03-04T17:12:35.637Z,100545.81
2023-03-04T17:15:06.208Z,100539.45
2023-03-04T17:17:34.646Z,100540.81
2023-03-04T17:20:09.495Z,100536.35
2023-03-04T17:22:38.032Z,100539.44
2023-03-04T17:25:07.232Z,100538.61
2023-03-04T17:27:39.205Z,100542.89
2023-03-04T17:30:11.132Z,100543.91
2023-03-04T17:32:44.738Z,100541.72
2023-03-04T17:35:13.232Z,100540.52
2023-03-04T17:37:41.757Z,100534.82
2023-03-04T17:40:14.348Z,100533.63
2023-03-04T17:42:43.229Z,100531.73
2023-03-04T17:45:11.584Z,100531.21
2023-03-04T17:47:40.643Z,100530.23
2023-03-04T17:50:10.363Z,100530.77
2023-03-04T17:52:38.927Z,100526.79
2023-03-04T17:55:07.888Z,100522.82
2023-03-04T17:57:37.842Z,100518.01
2023-03-04T18:00:06.863Z,100518.33
2023-03-04T18:02:39.723Z,100516.25
2023-03-04T18:05:08.134Z,100511.92
2023-03-04T18:07:36.959Z,100511.94
2023-03-04T18:10:06.711Z,100505.36
2023-03-04T18:12:35.131Z,100499.52
2023-03-04T18:15:03.866Z,100498.69
2023-03-04T18:17:32.879Z,100498.85
2023-03-04T18:20:02.271Z,100498.13
2023-03-04T18:22:31.380Z,100492.46
2023-03-04T18:24:59.641Z,100491.25
2023-03-04T18:27:28.471Z,100490.02
2023-03-04T18:29:58.027Z,100489.48
2023-03-04T18:32:26.159Z,100491.37
2023-03-04T18:34:55.355Z,100491.52
2023-03-04T18:37:24.610Z,100488.92
2023-03-04T18:39:53.603Z,100484.79
2023-03-04T18:42:21.924Z,100483.03
2023-03-04T18:44:51.473Z,100478.37
2023-03-04T18:47:20.201Z,100480.77
2023-03-04T18:49:48.409Z,100477.67
2023-03-04T18:52:16.633Z,100474.39
2023-03-04T18:54:45.544Z,100468.37
2023-03-04T18:57:16.780Z,100473.52
2023-03-04T18:59:50.914Z,100474.88
2023-03-04T19:02:48.167Z,100470.96
2023-03-04T19:05:23.198Z,100468.40
2023-03-04T19:07:56.184Z,100469.29
2023-03-04T19:10:26.028Z,100471.61
2023-03-04T19:12:59.770Z,100468.00
2023-03-04T19:15:28.230Z,100467.17
2023-03-04T19:17:56.389Z,100465.62
2023-03-04T19:20:29.495Z,100465.79
2023-03-04T19:22:58.592Z,100468.56
2023-03-04T19:25:26.845Z,100464.52
2023-03-04T19:27:56.595Z,100464.98
2023-03-04T19:30:25.066Z,100464.27
2023-03-04T19:32:55.201Z,100462.36
2023-03-04T19:35:23.756Z,100460.65
2023-03-04T19:37:52.033Z,100455.83
2023-03-04T19:40:21.267Z,100456.16
2023-03-04T19:42:49.421Z,100454.65
2023-03-04T19:45:18.021Z,100456.41
2023-03-04T19:47:46.583Z,100450.40
2023-03-04T19:50:16.777Z,100446.99
2023-03-04T19:52:45.852Z,100442.71
2023-03-04T19:55:20.415Z,100438.39
2023-03-04T19:57:49.012Z,100438.90
2023-03-04T20:00:17.524Z,100440.24
2023-03-04T20:02:48.110Z,100436.13
2023-03-04T20:05:16.640Z,100435.33
2023-03-04T20:07:50.068Z,100432.58
2023-03-04T20:10:19.723Z,100426.17
2023-03-04T20:12:47.881Z,100426.17
2023-03-04T20:15:16.464Z,100426.77
2023-03-04T20:17:45.768Z,100427.10
2023-03-04T20:20:15.950Z,100424.14
2023-03-04T20:22:44.684Z,100426.65
2023-03-04T20:25:13.464Z,100425.79
2023-03-04T20:27:42.979Z,100429.98
2023-03-04T20:30:13.146Z,100428.98
2023-03-04T20:32:41.484Z,100428.46
2023-03-04T20:35:14.135Z,100427.74
2023-03-04T20:37:42.377Z,100429.13
2023-03-04T20:40:11.607Z,100425.05
2023-03-04T20:42:39.958Z,100425.21
2023-03-04T20:45:11.046Z,100424.50
2023-03-04T20:47:40.002Z,100425.02
2023-03-04T20:50:11.301Z,100426.27
2023-03-04T20:52:40.305Z,100420.42
2023-03-04T20:55:09.376Z,100417.48
2023-03-04T20:57:38.749Z,100420.61
2023-03-04T21:00:08.839Z,100422.99
2023-03-04T21:02:40.052Z,100415.12
2023-03-04T21:05:08.806Z,100418.39
2023-03-04T21:07:36.964Z,100417.39
2023-03-04T21:10:05.541Z,100419.48
2023-03-04T21:12:34.080Z,100416.53
2023-03-04T21:15:09.095Z,100413.75
2023-03-04T21:17:39.943Z,100413.60
2023-03-04T21:20:09.453Z,100410.13
2023-03-04T21:22:37.746Z,100411.69
2023-03-04T21:25:06.638Z,100408.94
2023-03-04T21:27:38.799Z,100409.27
2023-03-04T21:30:08.705Z,100405.13
2023-03-04T21:32:36.992Z,100407.56
2023-03-04T21:35:05.870Z,100400.48
2023-03-04T21:37:34.562Z,100402.56
2023-03-04T21:40:04.245Z,100404.97
2023-03-04T21:42:32.904Z,100401.54
2023-03-04T21:45:02.599Z,100402.02
2023-03-04T21:47:31.746Z,100400.86
2023-03-04T21:50:00.741Z,100400.52
2023-03-04T21:52:29.095Z,100402.12
2023-03-04T21:54:57.406Z,100399.20
2023-03-04T21:57:27.312Z,100404.20
2023-03-04T21:59:55.731Z,100397.70
2023-03-04T22:02:23.971Z,100397.19
2023-03-04T22:04:53.967Z,100399.53
2023-03-04T22:07:22.563Z,100395.75
2023-03-04T22:09:54.614Z,100392.81
2023-03-04T22:12:22.805Z,100395.21
2023-03-04T22:14:50.966Z,100392.11
2023-03-04T22:17:19.095Z,100394.17
2023-03-04T22:19:47.301Z,100399.14
2023-03-04T22:22:20.148Z,100401.89
2023-03-04T22:24:48.570Z,100397.43
2023-03-04T22:27:16.820Z,100398.27
2023-03-04T22:29:45.086Z,100402.73
2023-03-04T22:32:15.306Z,100404.97
2023-03-04T22:34:46.854Z,100410.99
2023-03-04T22:37:15.307Z,100413.04
2023-03-04T22:39:43.524Z,100410.29
2023-03-04T22:42:12.120Z,100412.35
2023-03-04T22:44:40.626Z,100406.51
2023-03-04T22:47:08.754Z,100410.10
2023-03-04T22:49:37.990Z,100413.19
2023-03-04T22:52:07.865Z,100408.89
2023-03-04T22:54:36.632Z,100416.59
2023-03-04T22:57:05.410Z,100424.67
2023-03-04T22:59:42.015Z,100433.58
2023-03-04T23:02:10.799Z,100429.58
2023-03-04T23:04:41.716Z,100433.23
2023-03-04T23:07:11.200Z,100440.12
2023-03-04T23:09:39.326Z,100439.78
2023-03-04T23:12:07.865Z,100445.13
2023-03-04T23:14:36.245Z,100445.32
2023-03-04T23:17:05.289Z,100448.24
2023-03-04T23:19:33.531Z,100447.05
2023-03-04T23:22:02.833Z,100446.33
2023-03-04T23:24:31.146Z,100444.09
2023-03-04T23:26:59.681Z,100443.79
2023-03-04T23:29:27.764Z,100451.70
2023-03-04T23:31:56.078Z,100450.14
2023-03-04T23:34:25.950Z,100456.85
2023-03-04T23:36:54.461Z,100460.30
2023-03-04T23:39:22.921Z,100467.52
2023-03-04T23:41:51.565Z,100464.59
2023-03-04T23:44:20.108Z,100467.66
2023-03-04T23:46:48.234Z,100470.26
2023-03-04T23:49:18.065Z,100474.91
2023-03-04T23:51:46.361Z,100481.28
2023-03-04T23:54:14.540Z,100484.22
2023-03-04T23:56:42.696Z,100486.81
2023-03-04T23:59:12.436Z,100478.94
